Time;durP1;ratioP1;P1;durP2;ratioP2;P2;SDS_P1;SDS_P2;PMS_P1;PMS_P2;Temp;Humidity;BMP_temperature;BMP_pressure;BME280_temperature;BME280_humidity;BME280_pressure;Samples;Min_cycle;Max_cycle;Signal;HPM_P1;HPM_P2
2023/01/19 00:00:27;;;;;;;;;;;;;;;;;;5034483;28;19917;-52
2023/01/19 00:05:38;;;;;;;;;;;;;;;;;;5050890;28;19931;-52
2023/01/19 00:08:13;;;;;;;;;;;;;;;;;;5035790;28;19913;-54
2023/01/19 00:10:39;;;;;;;;;;;;;;;;;;5033594;28;19971;-53
2023/01/19 00:13:05;;;;;;;;;;;;;;;;;;5033254;28;19909;-52
2023/01/19 00:15:31;;;;;;;;;;;;;;;;;;5035514;28;20456;-51
2023/01/19 00:17:57;;;;;;;;;;;;;;;;;;5036578;28;19910;-51
2023/01/19 00:20:23;;;;;;;;;;;;;;;;;;5051848;28;19936;-52
2023/01/19 00:22:49;;;;;;;;;;;;;;;;;;5041495;28;20385;-50
2023/01/19 00:25:15;;;;;;;;;;;;;;;;;;5033943;28;19917;-51
2023/01/19 00:27:48;;;;;;;;;;;;;;;;;;5032953;28;19995;-52
2023/01/19 00:30:14;;;;;;;;;;;;;;;;;;5034900;28;20305;-54
2023/01/19 00:32:40;;;;;;;;;;;;;;;;;;5047776;28;20293;-51
2023/01/19 00:35:09;;;;;;;;;;;;;;;;;;5032684;28;19909;-51
2023/01/19 00:37:35;;;;;;;;;;;;;;;;;;5040344;28;20358;-52
2023/01/19 00:40:04;;;;;;;;;;;;;;;;;;5042291;28;19910;-51
2023/01/19 00:42:39;;;;;;;;;;;;;;;;;;5035922;28;19913;-52
2023/01/19 00:45:05;;;;;;;;;;;;;;;;;;5051944;28;20417;-52
2023/01/19 00:47:32;;;;;;;;;;;;;;;;;;5032769;28;19966;-53
2023/01/19 00:49:58;;;;;;;;;;;;;;;;;;5042711;28;19975;-51
2023/01/19 00:52:26;;;;;;;;;;;;;;;;;;5049292;28;20271;-54
2023/01/19 00:54:52;;;;;;;;;;;;;;;;;;5033548;28;19924;-52
2023/01/19 00:57:18;;;;;;;;;;;;;;;;;;5039328;28;19913;-52
2023/01/19 00:59:44;;;;;;;;;;;;;;;;;;5046664;28;19915;-51
2023/01/19 01:02:10;;;;;;;;;;;;;;;;;;5038564;28;20012;-52
2023/01/19 01:04:36;;;;;;;;;;;;;;;;;;5032353;28;20417;-52
2023/01/19 01:07:03;;;;;;;;;;;;;;;;;;5032444;28;20329;-52
2023/01/19 01:09:29;;;;;;;;;;;;;;;;;;5048136;28;19913;-51
2023/01/19 01:11:59;;;;;;;;;;;;;;;;;;5050066;28;20361;-51
2023/01/19 01:14:25;;;;;;;;;;;;;;;;;;5050502;28;19916;-51
2023/01/19 01:16:51;;;;;;;;;;;;;;;;;;5036084;28;19979;-52
2023/01/19 01:19:17;;;;;;;;;;;;;;;;;;5039854;28;20381;-52
2023/01/19 01:21:43;;;;;;;;;;;;;;;;;;5032220;28;19932;-54
2023/01/19 01:24:09;;;;;;;;;;;;;;;;;;5043615;28;20270;-52
2023/01/19 01:26:35;;;;;;;;;;;;;;;;;;5051793;28;20003;-51
2023/01/19 01:29:02;;;;;;;;;;;;;;;;;;5051316;28;19960;-52
2023/01/19 01:31:28;;;;;;;;;;;;;;;;;;5047491;28;19956;-51
2023/01/19 01:33:54;;;;;;;;;;;;;;;;;;5055768;28;19913;-52
2023/01/19 01:36:30;;;;;;;;;;;;;;;;;;5055656;28;19913;-53
2023/01/19 01:38:58;;;;;;;;;;;;;;;;;;5046566;28;19913;-51
2023/01/19 01:41:26;;;;;;;;;;;;;;;;;;5054222;28;20319;-54
2023/01/19 01:44:00;;;;;;;;;;;;;;;;;;5044601;28;20008;-51
2023/01/19 01:46:26;;;;;;;;;;;;;;;;;;5046965;28;20015;-52
2023/01/19 01:48:52;;;;;;;;;;;;;;;;;;5055527;28;20339;-51
2023/01/19 01:51:24;;;;;;;;;;;;;;;;;;5036128;28;19936;-52
2023/01/19 01:53:50;;;;;;;;;;;;;;;;;;5041684;28;19983;-52
2023/01/19 01:56:16;;;;;;;;;;;;;;;;;;5055384;28;20377;-52
2023/01/19 01:58:42;;;;;;;;;;;;;;;;;;5052978;28;19912;-51
2023/01/19 02:03:53;;;;;;;;;;;;;;;;;;5053174;28;20007;-51
2023/01/19 02:06:20;;;;;;;;;;;;;;;;;;5053423;28;20004;-52
2023/01/19 02:14:15;;;;;;;;;;;;;;;;;;5048417;28;19920;-51
2023/01/19 02:16:48;;;;;;;;;;;;;;;;;;5048126;28;19913;-51
2023/01/19 02:19:17;;;;;;;;;;;;;;;;;;5054132;28;19920;-51
2023/01/19 02:21:43;;;;;;;;;;;;;;;;;;5035269;28;19972;-51
2023/01/19 02:24:09;;;;;;;;;;;;;;;;;;5038843;28;20254;-51
2023/01/19 02:26:35;;;;;;;;;;;;;;;;;;5054687;28;20401;-51
2023/01/19 02:37:18;;;;;;;;;;;;;;;;;;5032554;28;19956;-52
2023/01/19 02:39:44;;;;;;;;;;;;;;;;;;5036920;28;19963;-52
2023/01/19 02:42:10;;;;;;;;;;;;;;;;;;5034761;28;19909;-54
2023/01/19 02:44:36;;;;;;;;;;;;;;;;;;5040718;28;19924;-51
2023/01/19 02:47:02;;;;;;;;;;;;;;;;;;5049515;28;19912;-51
2023/01/19 02:49:29;;;;;;;;;;;;;;;;;;5042844;28;20016;-50
2023/01/19 02:51:58;;;;;;;;;;;;;;;;;;5053717;28;19908;-53
2023/01/19 02:54:24;;;;;;;;;;;;;;;;;;5054493;28;19913;-53
2023/01/19 02:56:50;;;;;;;;;;;;;;;;;;5053021;28;19995;-51
2023/01/19 02:59:16;;;;;;;;;;;;;;;;;;5054541;28;19961;-50
2023/01/19 03:01:42;;;;;;;;;;;;;;;;;;5054588;28;20392;-50
2023/01/19 03:04:08;;;;;;;;;;;;;;;;;;5054384;28;19971;-51
2023/01/19 03:06:34;;;;;;;;;;;;;;;;;;5052935;28;19971;-51
2023/01/19 03:09:00;;;;;;;;;;;;;;;;;;5052628;28;19912;-52
2023/01/19 03:11:25;;;;;;;;;;;;;;;;;;5054229;28;19919;-52
2023/01/19 03:13:51;;;;;;;;;;;;;;;;;;5054432;28;19909;-51
2023/01/19 03:16:19;;;;;;;;;;;;;;;;;;5054179;28;20282;-54
2023/01/19 03:18:46;;;;;;;;;;;;;;;;;;5051222;28;19979;-51
2023/01/19 03:21:12;;;;;;;;;;;;;;;;;;5034815;28;19921;-52
2023/01/19 03:26:23;;;;;;;;;;;;;;;;;;5033575;28;19924;-51
2023/01/19 03:28:49;;;;;;;;;;;;;;;;;;5049112;28;19913;-52
2023/01/19 03:31:15;;;;;;;;;;;;;;;;;;5041026;28;20012;-51
2023/01/19 03:33:41;;;;;;;;;;;;;;;;;;5078978;22;19927;-59
2023/01/19 03:36:07;;;;;;;;;;;;;;;;;;5053155;28;20316;-61
2023/01/19 03:38:33;;;;;;;;;;;;;;;;;;5052755;28;20337;-59
2023/01/19 03:40:59;;;;;;;;;;;;;;;;;;5052679;28;19920;-60
2023/01/19 03:43:25;;;;;;;;;;;;;;;;;;5053017;28;19913;-61
2023/01/19 03:45:51;;;;;;;;;;;;;;;;;;5053134;28;19921;-61
2023/01/19 03:48:17;;;;;;;;;;;;;;;;;;5052890;28;19927;-61
2023/01/19 03:50:43;;;;;;;;;;;;;;;;;;5049331;28;19991;-61
2023/01/19 03:53:09;;;;;;;;;;;;;;;;;;5033255;28;19940;-60
2023/01/19 03:55:35;;;;;;;;;;;;;;;;;;5045220;28;19939;-60
2023/01/19 03:58:01;;;;;;;;;;;;;;;;;;5033276;28;19913;-59
2023/01/19 04:00:36;;;;;;;;;;;;;;;;;;5039874;28;19959;-60
2023/01/19 04:03:02;;;;;;;;;;;;;;;;;;5053072;28;19921;-61
2023/01/19 04:05:31;;;;;;;;;;;;;;;;;;5047146;28;19916;-59
2023/01/19 04:07:57;;;;;;;;;;;;;;;;;;5033398;28;19914;-61
2023/01/19 04:10:23;;;;;;;;;;;;;;;;;;5040981;28;19965;-61
2023/01/19 04:12:49;;;;;;;;;;;;;;;;;;5052779;28;19938;-61
2023/01/19 04:15:15;;;;;;;;;;;;;;;;;;5046262;28;20288;-60
2023/01/19 04:17:41;;;;;;;;;;;;;;;;;;5044689;28;19920;-59
2023/01/19 04:20:07;;;;;;;;;;;;;;;;;;5032648;28;19944;-61
2023/01/19 04:22:33;;;;;;;;;;;;;;;;;;5032867;28;20015;-60
2023/01/19 04:24:59;;;;;;;;;;;;;;;;;;5032689;28;20000;-60
2023/01/19 04:27:26;;;;;;;;;;;;;;;;;;5032690;28;19913;-61
2023/01/19 04:29:52;;;;;;;;;;;;;;;;;;5034885;28;20055;-59
2023/01/19 04:32:18;;;;;;;;;;;;;;;;;;5035065;28;19972;-60
2023/01/19 04:34:44;;;;;;;;;;;;;;;;;;5044215;28;19917;-60
2023/01/19 04:37:10;;;;;;;;;;;;;;;;;;5049359;28;19916;-61
2023/01/19 04:39:36;;;;;;;;;;;;;;;;;;5053429;28;19956;-60
2023/01/19 04:42:02;;;;;;;;;;;;;;;;;;5051096;28;19944;-60
2023/01/19 04:44:28;;;;;;;;;;;;;;;;;;5052254;28;20384;-61
2023/01/19 04:46:54;;;;;;;;;;;;;;;;;;5051377;28;19919;-61
2023/01/19 04:49:20;;;;;;;;;;;;;;;;;;5050808;28;20266;-61
2023/01/19 04:51:46;;;;;;;;;;;;;;;;;;5052213;28;19963;-61
2023/01/19 04:54:12;;;;;;;;;;;;;;;;;;5051839;28;19916;-60
2023/01/19 04:56:41;;;;;;;;;;;;;;;;;;5041718;28;20051;-57
2023/01/19 04:59:07;;;;;;;;;;;;;;;;;;5032127;28;19909;-59
2023/01/19 05:01:33;;;;;;;;;;;;;;;;;;5030491;28;19959;-59
2023/01/19 05:03:59;;;;;;;;;;;;;;;;;;5032996;28;20368;-58
2023/01/19 05:06:25;;;;;;;;;;;;;;;;;;5032173;28;19913;-59
2023/01/19 05:08:54;;;;;;;;;;;;;;;;;;5031891;28;20297;-59
2023/01/19 05:11:23;;;;;;;;;;;;;;;;;;5032464;28;19995;-59
2023/01/19 05:13:52;;;;;;;;;;;;;;;;;;5032115;28;20003;-60
2023/01/19 05:16:18;;;;;;;;;;;;;;;;;;5031621;28;19917;-58
2023/01/19 05:21:29;;;;;;;;;;;;;;;;;;5030888;28;19916;-58
2023/01/19 05:23:55;;;;;;;;;;;;;;;;;;5031571;28;19948;-56
2023/01/19 05:26:21;;;;;;;;;;;;;;;;;;5031962;28;19953;-59
2023/01/19 05:28:49;;;;;;;;;;;;;;;;;;5031667;28;20377;-58
2023/01/19 05:31:15;;;;;;;;;;;;;;;;;;5032017;28;19963;-60
2023/01/19 05:33:41;;;;;;;;;;;;;;;;;;5031788;28;19910;-60
2023/01/19 05:36:07;;;;;;;;;;;;;;;;;;5031053;28;19925;-58
2023/01/19 05:38:33;;;;;;;;;;;;;;;;;;5031868;28;20339;-59
2023/01/19 05:40:59;;;;;;;;;;;;;;;;;;5031952;28;20400;-59
2023/01/19 05:43:25;;;;;;;;;;;;;;;;;;5031776;28;20338;-59
2023/01/19 05:45:51;;;;;;;;;;;;;;;;;;5031700;28;19918;-60
2023/01/19 05:48:17;;;;;;;;;;;;;;;;;;5031690;28;19909;-60
2023/01/19 05:50:43;;;;;;;;;;;;;;;;;;5031750;28;20000;-59
2023/01/19 05:53:09;;;;;;;;;;;;;;;;;;5031788;28;19913;-59
2023/01/19 05:55:35;;;;;;;;;;;;;;;;;;5031672;28;19909;-57
2023/01/19 05:58:01;;;;;;;;;;;;;;;;;;5031586;28;19909;-58
2023/01/19 06:00:28;;;;;;;;;;;;;;;;;;5031432;28;19913;-58
2023/01/19 06:02:53;;;;;;;;;;;;;;;;;;5030475;28;19909;-58
2023/01/19 06:05:20;;;;;;;;;;;;;;;;;;5031534;28;20278;-58
2023/01/19 06:07:46;;;;;;;;;;;;;;;;;;5031911;28;20384;-59
2023/01/19 06:10:12;;;;;;;;;;;;;;;;;;5031109;28;20350;-60
2023/01/19 06:15:22;;;;;;;;;;;;;;;;;;5033767;28;19959;-58
2023/01/19 06:17:49;;;;;;;;;;;;;;;;;;5034404;28;20433;-60
2023/01/19 06:20:17;;;;;;;;;;;;;;;;;;5035158;28;20293;-60
2023/01/19 06:22:43;;;;;;;;;;;;;;;;;;5035162;28;19952;-60
2023/01/19 06:25:10;;;;;;;;;;;;;;;;;;5034942;28;19952;-60
2023/01/19 06:27:36;;;;;;;;;;;;;;;;;;5035084;28;19909;-59
2023/01/19 06:30:02;;;;;;;;;;;;;;;;;;5033533;28;19909;-59
2023/01/19 06:32:29;;;;;;;;;;;;;;;;;;5034907;28;19916;-60
2023/01/19 06:34:55;;;;;;;;;;;;;;;;;;5033476;28;19920;-60
2023/01/19 06:37:21;;;;;;;;;;;;;;;;;;5034994;28;20464;-60
2023/01/19 06:39:47;;;;;;;;;;;;;;;;;;5035103;28;19932;-60
2023/01/19 06:42:13;;;;;;;;;;;;;;;;;;5034853;28;19909;-60
2023/01/19 06:44:46;;;;;;;;;;;;;;;;;;5034734;28;19924;-59
2023/01/19 06:47:12;;;;;;;;;;;;;;;;;;5034824;28;20366;-59
2023/01/19 06:49:38;;;;;;;;;;;;;;;;;;5034646;28;20309;-59
2023/01/19 06:52:04;;;;;;;;;;;;;;;;;;5034848;28;20227;-58
2023/01/19 06:54:30;;;;;;;;;;;;;;;;;;5034525;28;19920;-60
2023/01/19 06:56:56;;;;;;;;;;;;;;;;;;5034576;28;19909;-60
2023/01/19 06:59:22;;;;;;;;;;;;;;;;;;5034311;28;20324;-60
2023/01/19 07:01:48;;;;;;;;;;;;;;;;;;5034463;28;19909;-60
2023/01/19 07:04:14;;;;;;;;;;;;;;;;;;5034291;28;20004;-59
2023/01/19 07:06:46;;;;;;;;;;;;;;;;;;5034397;28;19986;-58
2023/01/19 07:09:12;;;;;;;;;;;;;;;;;;5034312;28;19936;-59
2023/01/19 07:11:38;;;;;;;;;;;;;;;;;;5034383;28;19916;-58
2023/01/19 07:14:07;;;;;;;;;;;;;;;;;;5034182;28;19909;-59
2023/01/19 07:16:33;;;;;;;;;;;;;;;;;;5034202;28;19917;-58
2023/01/19 07:18:59;;;;;;;;;;;;;;;;;;5032756;28;19909;-56
2023/01/19 07:21:28;;;;;;;;;;;;;;;;;;5033997;28;20304;-56
2023/01/19 07:23:54;;;;;;;;;;;;;;;;;;5032984;28;19909;-53
2023/01/19 07:26:24;;;;;;;;;;;;;;;;;;5032578;28;19913;-56
2023/01/19 07:28:53;;;;;;;;;;;;;;;;;;5033659;28;20420;-54
2023/01/19 07:31:19;;;;;;;;;;;;;;;;;;5033999;28;19909;-57
2023/01/19 07:33:45;;;;;;;;;;;;;;;;;;5033803;28;19909;-53
2023/01/19 07:36:11;;;;;;;;;;;;;;;;;;5032468;28;20008;-59
2023/01/19 07:38:37;;;;;;;;;;;;;;;;;;5033521;28;19917;-60
2023/01/19 07:41:03;;;;;;;;;;;;;;;;;;5033650;28;20378;-58
2023/01/19 07:43:29;;;;;;;;;;;;;;;;;;5033650;28;19963;-59
2023/01/19 07:46:04;;;;;;;;;;;;;;;;;;5033360;28;19917;-59
2023/01/19 07:48:40;;;;;;;;;;;;;;;;;;5032999;28;20300;-60
2023/01/19 07:51:11;;;;;;;;;;;;;;;;;;5032867;28;20517;-60
2023/01/19 07:53:38;;;;;;;;;;;;;;;;;;5032031;28;19920;-60
2023/01/19 07:56:06;;;;;;;;;;;;;;;;;;5033417;28;20322;-59
2023/01/19 07:58:32;;;;;;;;;;;;;;;;;;5033175;28;19909;-59
2023/01/19 08:01:01;;;;;;;;;;;;;;;;;;5033214;28;20325;-58
2023/01/19 08:03:27;;;;;;;;;;;;;;;;;;5033177;28;20027;-59
2023/01/19 08:05:53;;;;;;;;;;;;;;;;;;5033136;28;19917;-60
2023/01/19 08:08:19;;;;;;;;;;;;;;;;;;5032996;28;19955;-57
2023/01/19 08:10:45;;;;;;;;;;;;;;;;;;5032259;28;19996;-59
2023/01/19 08:13:11;;;;;;;;;;;;;;;;;;5032862;28;19909;-60
2023/01/19 08:15:37;;;;;;;;;;;;;;;;;;5033020;28;19962;-59
2023/01/19 08:18:10;;;;;;;;;;;;;;;;;;5033041;28;19913;-58
2023/01/19 08:20:36;;;;;;;;;;;;;;;;;;5033105;28;19909;-59
2023/01/19 08:23:03;;;;;;;;;;;;;;;;;;5032840;28;19995;-59
2023/01/19 08:25:29;;;;;;;;;;;;;;;;;;5033161;28;19913;-59
2023/01/19 08:27:55;;;;;;;;;;;;;;;;;;5032775;28;19909;-59
2023/01/19 08:30:22;;;;;;;;;;;;;;;;;;5031387;28;19909;-60
2023/01/19 08:32:48;;;;;;;;;;;;;;;;;;5032634;28;19915;-58
2023/01/19 08:35:14;;;;;;;;;;;;;;;;;;5032563;28;20267;-60
2023/01/19 08:37:40;;;;;;;;;;;;;;;;;;5031299;28;19924;-59
2023/01/19 08:40:06;;;;;;;;;;;;;;;;;;5032496;28;19909;-59
2023/01/19 08:42:32;;;;;;;;;;;;;;;;;;5031284;28;20420;-59
2023/01/19 08:44:58;;;;;;;;;;;;;;;;;;5032335;28;19913;-60
2023/01/19 08:47:24;;;;;;;;;;;;;;;;;;5031998;28;19916;-58
2023/01/19 08:49:50;;;;;;;;;;;;;;;;;;5032229;28;19959;-60
2023/01/19 08:52:16;;;;;;;;;;;;;;;;;;5031092;28;19909;-60
2023/01/19 08:54:42;;;;;;;;;;;;;;;;;;5030240;28;20434;-59
2023/01/19 08:57:15;;;;;;;;;;;;;;;;;;5032174;28;20396;-60
2023/01/19 08:59:41;;;;;;;;;;;;;;;;;;5032166;28;20263;-59
2023/01/19 09:02:08;;;;;;;;;;;;;;;;;;5032374;28;19909;-59
2023/01/19 09:04:34;;;;;;;;;;;;;;;;;;5032165;28;19909;-60
2023/01/19 09:07:00;;;;;;;;;;;;;;;;;;5031015;28;19909;-58
2023/01/19 09:09:26;;;;;;;;;;;;;;;;;;5032182;28;20008;-60
2023/01/19 09:11:52;;;;;;;;;;;;;;;;;;5032144;28;19955;-61
2023/01/19 09:14:18;;;;;;;;;;;;;;;;;;5032395;28;19913;-58
2023/01/19 09:16:47;;;;;;;;;;;;;;;;;;5032128;28;19913;-60
2023/01/19 09:19:14;;;;;;;;;;;;;;;;;;5031632;28;19913;-60
2023/01/19 09:21:43;;;;;;;;;;;;;;;;;;5030663;28;19910;-60
2023/01/19 09:24:09;;;;;;;;;;;;;;;;;;5032000;28;19913;-60
2023/01/19 09:26:35;;;;;;;;;;;;;;;;;;5032042;28;19917;-59
2023/01/19 09:29:07;;;;;;;;;;;;;;;;;;5030613;28;19917;-60
2023/01/19 09:31:33;;;;;;;;;;;;;;;;;;5032007;28;19909;-59
2023/01/19 09:33:59;;;;;;;;;;;;;;;;;;5058535;22;20220;-51
2023/01/19 09:36:25;;;;;;;;;;;;;;;;;;5050910;28;20307;-50
2023/01/19 09:38:54;;;;;;;;;;;;;;;;;;5051104;28;20289;-53
2023/01/19 09:41:20;;;;;;;;;;;;;;;;;;5050504;28;19962;-51
2023/01/19 09:43:50;;;;;;;;;;;;;;;;;;5050924;28;20277;-51
2023/01/19 09:46:16;;;;;;;;;;;;;;;;;;5050067;28;19924;-50
2023/01/19 09:48:42;;;;;;;;;;;;;;;;;;5052980;28;19909;-51
2023/01/19 09:51:08;;;;;;;;;;;;;;;;;;5054116;28;20086;-52
2023/01/19 09:56:19;;;;;;;;;;;;;;;;;;5051964;28;19916;-51
2023/01/19 09:58:45;;;;;;;;;;;;;;;;;;5052103;28;19909;-51
2023/01/19 10:01:11;;;;;;;;;;;;;;;;;;5054316;28;20018;-51
2023/01/19 10:03:37;;;;;;;;;;;;;;;;;;5054215;28;20369;-51
2023/01/19 10:06:03;;;;;;;;;;;;;;;;;;5054080;28;19921;-50
2023/01/19 10:08:29;;;;;;;;;;;;;;;;;;5053928;28;19909;-53
2023/01/19 10:10:55;;;;;;;;;;;;;;;;;;5036296;28;20083;-50
2023/01/19 10:13:21;;;;;;;;;;;;;;;;;;5053965;28;20286;-53
2023/01/19 10:15:47;;;;;;;;;;;;;;;;;;5054029;28;20251;-50
2023/01/19 10:18:13;;;;;;;;;;;;;;;;;;5035906;28;19919;-50
2023/01/19 10:20:40;;;;;;;;;;;;;;;;;;5053829;28;19927;-51
2023/01/19 10:23:06;;;;;;;;;;;;;;;;;;5036074;28;19909;-51
2023/01/19 10:25:38;;;;;;;;;;;;;;;;;;5053745;28;19913;-50
2023/01/19 10:28:04;;;;;;;;;;;;;;;;;;5035985;28;19908;-50
2023/01/19 10:30:30;;;;;;;;;;;;;;;;;;5053679;28;19944;-51
2023/01/19 10:32:56;;;;;;;;;;;;;;;;;;5053799;28;19909;-50
2023/01/19 10:35:23;;;;;;;;;;;;;;;;;;4905759;28;4242892;-50
2023/01/19 10:37:53;;;;;;;;;;;;;;;;;;5054953;28;19955;-51
2023/01/19 10:40:22;;;;;;;;;;;;;;;;;;5054745;28;20424;-50
2023/01/19 10:42:48;;;;;;;;;;;;;;;;;;5054873;28;19909;-50
2023/01/19 10:45:15;;;;;;;;;;;;;;;;;;5036782;28;19952;-51
2023/01/19 10:47:41;;;;;;;;;;;;;;;;;;5054690;28;19951;-50
2023/01/19 10:50:07;;;;;;;;;;;;;;;;;;5036610;28;20333;-51
2023/01/19 10:52:36;;;;;;;;;;;;;;;;;;5054772;28;19920;-50
2023/01/19 10:55:02;;;;;;;;;;;;;;;;;;5054508;28;19916;-50
2023/01/19 10:57:29;;;;;;;;;;;;;;;;;;5054522;28;19916;-51
2023/01/19 10:59:55;;;;;;;;;;;;;;;;;;5054237;28;19909;-54
2023/01/19 11:02:21;;;;;;;;;;;;;;;;;;5054530;28;19932;-50
2023/01/19 11:04:48;;;;;;;;;;;;;;;;;;5054252;28;19959;-49
2023/01/19 11:12:45;;;;;;;;;;;;;;;;;;5053447;28;19928;-50
2023/01/19 11:15:11;;;;;;;;;;;;;;;;;;5054099;28;19909;-51
2023/01/19 11:17:37;;;;;;;;;;;;;;;;;;5054169;28;19931;-51
2023/01/19 11:20:03;;;;;;;;;;;;;;;;;;5036121;28;19919;-51
2023/01/19 11:22:29;;;;;;;;;;;;;;;;;;5054139;28;20000;-53
2023/01/19 11:24:55;;;;;;;;;;;;;;;;;;5053875;28;19963;-51
2023/01/19 11:27:24;;;;;;;;;;;;;;;;;;5053910;28;19909;-51
2023/01/19 11:29:50;;;;;;;;;;;;;;;;;;5053966;28;19924;-52
2023/01/19 11:32:16;;;;;;;;;;;;;;;;;;5035694;28;19951;-52
2023/01/19 11:34:42;;;;;;;;;;;;;;;;;;5053659;28;19920;-52
2023/01/19 11:37:13;;;;;;;;;;;;;;;;;;5053796;28;19970;-51
2023/01/19 11:39:39;;;;;;;;;;;;;;;;;;5053534;28;19909;-53
2023/01/19 11:42:10;;;;;;;;;;;;;;;;;;5053634;28;19913;-50
2023/01/19 11:44:36;;;;;;;;;;;;;;;;;;5053046;28;19909;-50
2023/01/19 11:47:02;;;;;;;;;;;;;;;;;;5034784;28;20360;-51
2023/01/19 11:49:28;;;;;;;;;;;;;;;;;;5053317;28;20285;-51
2023/01/19 11:51:54;;;;;;;;;;;;;;;;;;5052430;28;19954;-54
2023/01/19 11:54:22;;;;;;;;;;;;;;;;;;5053296;28;19916;-52
2023/01/19 11:56:50;;;;;;;;;;;;;;;;;;5053442;28;19940;-50
2023/01/19 11:59:20;;;;;;;;;;;;;;;;;;5051508;28;20007;-50
2023/01/19 12:01:46;;;;;;;;;;;;;;;;;;5034936;28;20399;-53
2023/01/19 12:04:13;;;;;;;;;;;;;;;;;;5052613;28;19935;-50
2023/01/19 12:06:57;;;;;;;;;;;;;;;;;;5051867;28;19917;-51
2023/01/19 12:09:26;;;;;;;;;;;;;;;;;;5052366;28;20416;-52
2023/01/19 12:11:52;;;;;;;;;;;;;;;;;;5052496;28;20691;-51
2023/01/19 12:14:19;;;;;;;;;;;;;;;;;;5052989;28;19962;-52
2023/01/19 12:16:48;;;;;;;;;;;;;;;;;;5052673;28;20068;-52
2023/01/19 12:19:15;;;;;;;;;;;;;;;;;;5051921;28;19947;-50
2023/01/19 12:21:42;;;;;;;;;;;;;;;;;;5051880;28;20300;-51
2023/01/19 12:24:08;;;;;;;;;;;;;;;;;;5053008;28;19917;-53
2023/01/19 12:26:34;;;;;;;;;;;;;;;;;;5052831;28;19917;-51
2023/01/19 12:29:00;;;;;;;;;;;;;;;;;;5052823;28;19912;-51
2023/01/19 12:31:26;;;;;;;;;;;;;;;;;;5052663;28;19999;-51
2023/01/19 12:33:52;;;;;;;;;;;;;;;;;;5051627;28;19940;-51
2023/01/19 12:36:18;;;;;;;;;;;;;;;;;;5052256;28;19964;-51
2023/01/19 12:38:44;;;;;;;;;;;;;;;;;;5051769;28;19915;-52
2023/01/19 12:41:12;;;;;;;;;;;;;;;;;;5052595;28;19908;-50
2023/01/19 12:43:41;;;;;;;;;;;;;;;;;;5052534;28;19916;-51
2023/01/19 12:46:07;;;;;;;;;;;;;;;;;;5051169;28;19913;-52
2023/01/19 12:48:33;;;;;;;;;;;;;;;;;;5052355;28;20382;-51
2023/01/19 12:50:59;;;;;;;;;;;;;;;;;;5052720;28;19916;-51
2023/01/19 12:53:29;;;;;;;;;;;;;;;;;;5052320;28;20418;-51
2023/01/19 12:55:55;;;;;;;;;;;;;;;;;;5052336;28;20403;-52
2023/01/19 12:58:21;;;;;;;;;;;;;;;;;;5052124;28;19959;-52
2023/01/19 13:00:48;;;;;;;;;;;;;;;;;;5049924;28;19920;-51
2023/01/19 13:03:14;;;;;;;;;;;;;;;;;;5050455;28;19924;-51
2023/01/19 13:05:41;;;;;;;;;;;;;;;;;;5051054;28;20277;-51
2023/01/19 13:08:07;;;;;;;;;;;;;;;;;;5050615;28;20293;-51
2023/01/19 13:10:33;;;;;;;;;;;;;;;;;;5051091;28;19913;-51
2023/01/19 13:12:59;;;;;;;;;;;;;;;;;;5051276;28;19919;-52
2023/01/19 13:15:28;;;;;;;;;;;;;;;;;;5051215;28;19925;-51
2023/01/19 13:17:57;;;;;;;;;;;;;;;;;;5052010;28;19912;-51
2023/01/19 13:20:23;;;;;;;;;;;;;;;;;;5051638;28;19913;-50
2023/01/19 13:22:49;;;;;;;;;;;;;;;;;;5048958;28;19920;-51
2023/01/19 13:25:19;;;;;;;;;;;;;;;;;;5051364;28;19971;-52
2023/01/19 13:27:45;;;;;;;;;;;;;;;;;;5051817;28;20261;-54
2023/01/19 13:30:12;;;;;;;;;;;;;;;;;;5050465;28;19912;-51
2023/01/19 13:32:38;;;;;;;;;;;;;;;;;;5050401;28;19909;-53
2023/01/19 13:35:04;;;;;;;;;;;;;;;;;;5051420;28;20052;-51
2023/01/19 13:37:30;;;;;;;;;;;;;;;;;;5051440;28;19913;-51
2023/01/19 13:39:56;;;;;;;;;;;;;;;;;;5049844;28;19909;-50
2023/01/19 13:42:22;;;;;;;;;;;;;;;;;;5050939;28;19913;-51
2023/01/19 13:44:51;;;;;;;;;;;;;;;;;;5051323;28;20384;-52
2023/01/19 13:47:22;;;;;;;;;;;;;;;;;;5050692;28;19919;-54
2023/01/19 13:49:48;;;;;;;;;;;;;;;;;;5050121;28;19916;-51
2023/01/19 13:52:15;;;;;;;;;;;;;;;;;;5051595;28;19912;-52
2023/01/19 13:54:41;;;;;;;;;;;;;;;;;;5051135;28;19952;-51
2023/01/19 13:57:07;;;;;;;;;;;;;;;;;;5051589;28;19955;-51
2023/01/19 13:59:33;;;;;;;;;;;;;;;;;;5051122;28;19923;-51
2023/01/19 14:01:59;;;;;;;;;;;;;;;;;;5051091;28;19912;-53
2023/01/19 14:04:25;;;;;;;;;;;;;;;;;;5050700;28;20004;-51
2023/01/19 14:06:54;;;;;;;;;;;;;;;;;;5051386;28;20359;-50
2023/01/19 14:09:20;;;;;;;;;;;;;;;;;;5051004;28;19913;-51
2023/01/19 14:11:46;;;;;;;;;;;;;;;;;;5051370;28;20434;-51
2023/01/19 14:14:12;;;;;;;;;;;;;;;;;;5051127;28;19917;-49
2023/01/19 14:16:38;;;;;;;;;;;;;;;;;;5050853;28;19928;-51
2023/01/19 14:19:04;;;;;;;;;;;;;;;;;;5051115;28;19967;-54
2023/01/19 14:21:30;;;;;;;;;;;;;;;;;;5051443;28;19909;-52
2023/01/19 14:24:00;;;;;;;;;;;;;;;;;;5051328;28;19995;-51
2023/01/19 14:26:26;;;;;;;;;;;;;;;;;;5050041;28;19917;-52
2023/01/19 14:28:52;;;;;;;;;;;;;;;;;;5051405;28;19913;-52
2023/01/19 14:31:20;;;;;;;;;;;;;;;;;;5051292;28;19913;-52
2023/01/19 14:33:46;;;;;;;;;;;;;;;;;;5049239;28;19919;-51
2023/01/19 14:36:16;;;;;;;;;;;;;;;;;;5053702;28;19940;-49
2023/01/19 14:38:51;;;;;;;;;;;3.20;99.90;;;;;;5050852;28;20411;-52
2023/01/19 14:41:34;;;;;;;;;;;3.30;99.90;;;;;;5054162;28;20067;-52
2023/01/19 14:44:00;;;;;;;;;;;3.20;99.90;;;;;;5044787;28;19916;-56
2023/01/19 14:46:26;;;;;;;;;;;3.20;99.90;;;;;;5054605;28;19913;-52
2023/01/19 14:48:59;;;;;;;;;;;3.20;99.90;;;;;;5019856;28;19910;-52
2023/01/19 14:51:25;;;;;;;;;;;3.10;99.90;;;;;;5034530;28;19917;-51
2023/01/19 14:53:56;;;;;;;;;;;3.10;99.90;;;;;;5034819;28;19909;-51
2023/01/19 14:56:29;;;;;;;;;;;3.00;99.90;;;;;;5038094;28;20401;-52
2023/01/19 14:58:56;;;;;;;;;;;3.00;99.90;;;;;;5054134;28;19959;-51
2023/01/19 15:01:22;;;;;;;;;;;2.90;99.90;;;;;;5036781;28;19915;-50
2023/01/19 15:03:49;;;;;;;;;;;2.80;99.90;;;;;;5054573;28;20262;-52
2023/01/19 15:18:17;;;;;;;;;;;;;;;;;;5048191;28;20394;-51
2023/01/19 15:20:43;;;;;;;;;;;;;;;;;;5053005;28;19916;-52
2023/01/19 15:23:09;;;;;;;;;;;;;;;;;;5051825;28;20012;-52
2023/01/19 15:25:35;;;;;;;;;;;;;;;;;;5046041;28;19962;-52
2023/01/19 15:28:02;;;;;;;;;;;;;;;;;;5043852;28;19913;-53
2023/01/19 15:30:29;;;;;;;;;;;;;;;;;;5046959;28;19951;-54
2023/01/19 15:32:57;;;;;;;;;;;;;;;;;;5052254;28;20555;-52
2023/01/19 15:35:24;;;;;;;;;;;;;;;;;;5051403;28;20326;-52
2023/01/19 15:37:50;;;;;;;;;;;;;;;;;;5052655;28;19954;-52
2023/01/19 15:40:16;;;;;;;;;;;;;;;;;;5049132;28;19928;-51
2023/01/19 15:42:42;;;;;;;;;;;;;;;;;;5049621;28;20308;-52
2023/01/19 15:45:08;;;;;;;;;;;;;;;;;;5032904;28;20020;-52
2023/01/19 15:47:34;;;;;;;;;;;;;;;;;;5051492;28;19913;-52
2023/01/19 15:50:00;;;;;;;;;;;;;;;;;;5052535;28;19920;-51
2023/01/19 15:52:26;;;;;;;;;;;;;;;;;;5052372;28;20000;-52
2023/01/19 15:55:14;;;;;;;;;;;;;;;;;;5052449;28;19920;-52
2023/01/19 15:57:38;;;;;;;;;;;;;;;;;;5051412;28;19912;-51
2023/01/19 16:00:04;;;;;;;;;;;;;;;;;;5051267;28;19912;-51
2023/01/19 16:02:36;;;;;;;;;;;;;;;;;;5053140;28;19917;-52
2023/01/19 16:05:02;;;;;;;;;;;;;;;;;;5052980;28;19923;-54
2023/01/19 16:07:28;;;;;;;;;;;;;;;;;;5052691;28;19932;-53
2023/01/19 16:09:57;;;;;;;;;;;;;;;;;;5046968;28;20295;-51
2023/01/19 16:12:23;;;;;;;;;;;;;;;;;;5052392;28;19943;-53
2023/01/19 16:17:35;;;;;;;;;;;;;;;;;;5050401;28;20723;-52
2023/01/19 16:20:01;;;;;;;;;;;;;;;;;;5051484;28;19999;-54
2023/01/19 16:22:27;;;;;;;;;;;;;;;;;;5052986;28;19913;-52
2023/01/19 16:24:55;;;;;;;;;;;;;;;;;;5051054;28;20000;-53
2023/01/19 16:27:21;;;;;;;;;;;;;;;;;;5052382;28;20385;-54
2023/01/19 16:29:47;;;;;;;;;;;;;;;;;;5052451;28;20028;-53
2023/01/19 16:32:13;;;;;;;;;;;;;;;;;;5045736;28;19972;-53
2023/01/19 16:34:39;;;;;;;;;;;;;;;;;;5050749;28;19979;-54
2023/01/19 16:37:05;;;;;;;;;;;;;;;;;;5052514;28;19917;-51
2023/01/19 16:39:31;;;;;;;;;;;;;;;;;;5050191;28;19913;-60
2023/01/19 16:41:57;;;;;;;;;;;;;;;;;;5051763;28;19912;-55
2023/01/19 16:44:23;;;;;;;;;;;;;;;;;;5051830;28;20404;-53
2023/01/19 16:46:49;;;;;;;;;;;;;;;;;;5052269;28;19919;-53
2023/01/19 16:49:15;;;;;;;;;;;;;;;;;;5052212;28;19909;-54
2023/01/19 16:51:41;;;;;;;;;;;;;;;;;;5052338;28;19917;-54
2023/01/19 16:54:07;;;;;;;;;;;;;;;;;;5051246;28;19909;-54
2023/01/19 16:56:33;;;;;;;;;;;;;;;;;;5051242;28;19908;-54
2023/01/19 16:59:01;;;;;;;;;;;;;;;;;;5052446;28;20274;-51
2023/01/19 17:01:46;;;;;;;;;;;;;;;;;;5052143;28;20285;-53
2023/01/19 17:04:12;;;;;;;;;;;;;;;;;;5052443;28;19909;-54
2023/01/19 17:06:46;;;;;;;;;;;;;;;;;;5052251;28;19927;-51
2023/01/19 17:09:12;;;;;;;;;;;;;;;;;;5052237;28;19909;-54
2023/01/19 17:11:42;;;;;;;;;;;;;;;;;;5052137;28;19909;-51
2023/01/19 17:14:13;;;;;;;;;;;;;;;;;;5052045;28;20292;-51
2023/01/19 17:16:39;;;;;;;;;;;;;;;;;;5052043;28;19909;-52
2023/01/19 17:19:05;;;;;;;;;;;;;;;;;;5051936;28;19909;-54
2023/01/19 17:21:31;;;;;;;;;;;;;;;;;;5052555;28;19908;-51
2023/01/19 17:23:57;;;;;;;;;;;;;;;;;;5051995;28;20039;-51
2023/01/19 17:26:29;;;;;;;;;;;;;;;;;;5051890;28;19924;-55
2023/01/19 17:28:55;;;;;;;;;;;;;;;;;;5051884;28;20319;-53